createdAt,value
2023-03-11T00:00:49.719Z,22.48
2023-03-11T00:03:20.265Z,22.51
2023-03-11T00:05:49.261Z,22.52
2023-03-11T00:08:20.361Z,22.55
2023-03-11T00:10:49.996Z,22.57
2023-03-11T00:13:19.021Z,22.60
2023-03-11T00:15:50.575Z,22.63
2023-03-11T00:18:19.954Z,22.68
2023-03-11T00:20:48.964Z,22.71
2023-03-11T00:23:17.393Z,22.75
2023-03-11T00:25:47.705Z,22.78
2023-03-11T00:28:17.311Z,22.84
2023-03-11T00:30:47.716Z,22.87
2023-03-11T00:33:17.170Z,22.91
2023-03-11T00:35:46.170Z,22.95
2023-03-11T00:38:17.071Z,23.01
2023-03-11T00:40:47.211Z,23.06
2023-03-11T00:43:16.914Z,23.11
2023-03-11T00:45:45.292Z,23.17
2023-03-11T00:48:16.005Z,23.24
2023-03-11T00:50:44.566Z,23.28
2023-03-11T00:53:13.249Z,23.34
2023-03-11T00:55:41.905Z,23.40
2023-03-11T00:58:11.985Z,23.46
2023-03-11T01:00:40.466Z,23.53
2023-03-11T01:03:08.851Z,23.58
2023-03-11T01:05:37.318Z,23.65
2023-03-11T01:08:06.435Z,23.72
2023-03-11T01:10:35.772Z,23.79
2023-03-11T01:13:05.215Z,23.85
2023-03-11T01:15:37.807Z,23.90
2023-03-11T01:18:07.683Z,23.96
2023-03-11T01:20:37.761Z,24.03
2023-03-11T01:23:07.392Z,24.08
2023-03-11T01:25:36.624Z,24.16
2023-03-11T01:28:05.218Z,24.21
2023-03-11T01:30:35.506Z,24.27
2023-03-11T01:33:04.737Z,24.35
2023-03-11T01:35:33.849Z,24.42
2023-03-11T01:38:02.236Z,24.48
2023-03-11T01:40:36.660Z,24.56
2023-03-11T01:43:07.520Z,24.64
2023-03-11T01:46:04.726Z,24.72
2023-03-11T01:48:33.061Z,24.80
2023-03-11T01:51:01.928Z,24.86
2023-03-11T01:53:30.623Z,24.92
2023-03-11T01:55:59.413Z,25.01
2023-03-11T01:58:32.008Z,25.07
2023-03-11T02:01:02.614Z,25.14
2023-03-11T02:03:40.745Z,25.20
2023-03-11T02:06:14.073Z,25.27
2023-03-11T02:08:44.140Z,25.35
2023-03-11T02:11:20.739Z,25.40
2023-03-11T02:13:50.608Z,25.47
2023-03-11T02:16:19.464Z,25.53
2023-03-11T02:18:47.991Z,25.60
2023-03-11T02:21:34.081Z,25.69
2023-03-11T02:24:22.079Z,25.76
2023-03-11T02:26:56.242Z,25.85
2023-03-11T02:29:26.092Z,25.93
2023-03-11T02:31:54.996Z,25.99
2023-03-11T02:34:27.625Z,26.08
2023-03-11T02:37:00.137Z,26.14
2023-03-11T02:39:39.922Z,26.20
2023-03-11T02:42:17.151Z,26.29
2023-03-11T02:44:50.570Z,26.33
2023-03-11T02:47:19.003Z,26.41
2023-03-11T02:49:47.491Z,26.46
2023-03-11T02:52:15.795Z,26.53
2023-03-11T02:54:44.109Z,26.59
2023-03-11T02:57:12.653Z,26.64
2023-03-11T02:59:40.944Z,26.71
2023-03-11T03:02:09.312Z,26.77
2023-03-11T03:04:37.783Z,26.83
2023-03-11T03:07:06.240Z,26.90
2023-03-11T03:09:35.801Z,26.95
2023-03-11T03:12:05.532Z,26.99
2023-03-11T03:14:34.016Z,27.07
2023-03-11T03:17:02.638Z,27.13
2023-03-11T03:19:31.001Z,27.16
2023-03-11T03:21:59.296Z,27.20
2023-03-11T03:24:27.608Z,27.26
2023-03-11T03:26:55.927Z,27.34
2023-03-11T03:29:24.325Z,27.44
2023-03-11T03:31:52.724Z,27.51
2023-03-11T03:34:21.039Z,27.61
2023-03-11T03:36:49.324Z,27.67
2023-03-11T03:39:19.676Z,27.75
2023-03-11T03:41:47.960Z,27.79
2023-03-11T03:44:16.244Z,27.83
2023-03-11T03:46:44.573Z,27.89
2023-03-11T03:49:12.957Z,27.94
2023-03-11T03:51:41.208Z,27.99
2023-03-11T03:54:09.553Z,28.06
2023-03-11T03:56:37.840Z,28.11
2023-03-11T03:59:06.262Z,28.18
2023-03-11T04:01:34.606Z,28.26
2023-03-11T04:04:02.889Z,28.32
2023-03-11T04:06:31.309Z,28.42
2023-03-11T04:08:59.598Z,28.49
2023-03-11T04:11:27.932Z,28.55
2023-03-11T04:13:56.260Z,28.63
2023-03-11T04:16:25.971Z,28.72
2023-03-11T04:18:54.287Z,28.79
2023-03-11T04:21:22.772Z,28.86
2023-03-11T04:23:51.254Z,28.97
2023-03-11T04:26:19.607Z,29.04
2023-03-11T04:28:47.898Z,29.11
2023-03-11T04:31:16.440Z,29.20
2023-03-11T04:33:44.865Z,29.29
2023-03-11T04:36:14.236Z,29.33
2023-03-11T04:38:42.543Z,29.42
2023-03-11T04:41:10.965Z,29.46
2023-03-11T04:43:39.328Z,29.56
2023-03-11T04:46:07.694Z,29.61
2023-03-11T04:48:36.044Z,29.68
2023-03-11T04:51:04.481Z,29.76
2023-03-11T04:53:33.039Z,29.82
2023-03-11T04:56:01.771Z,29.91
2023-03-11T04:58:30.104Z,30.00
2023-03-11T05:00:58.435Z,30.07
2023-03-11T05:03:26.832Z,30.17
2023-03-11T05:05:57.682Z,30.23
2023-03-11T05:08:26.036Z,30.29
2023-03-11T05:10:54.969Z,30.38
2023-03-11T05:13:23.597Z,30.44
2023-03-11T05:15:51.919Z,30.52
2023-03-11T05:18:20.302Z,30.62
2023-03-11T05:20:48.891Z,30.71
2023-03-11T05:23:17.197Z,30.81
2023-03-11T05:25:45.566Z,30.88
2023-03-11T05:28:13.956Z,30.95
2023-03-11T05:30:42.274Z,30.98
2023-03-11T05:33:10.583Z,30.99
2023-03-11T05:35:38.972Z,31.05
2023-03-11T05:38:07.331Z,31.12
2023-03-11T05:40:35.623Z,31.17
2023-03-11T05:43:03.922Z,31.20
2023-03-11T05:45:32.211Z,31.26
2023-03-11T05:48:00.633Z,31.31
2023-03-11T05:50:28.951Z,31.38
2023-03-11T05:52:57.262Z,31.40
2023-03-11T05:55:25.589Z,31.43
2023-03-11T05:57:54.223Z,31.46
2023-03-11T06:00:23.038Z,31.50
2023-03-11T06:02:51.411Z,31.55
2023-03-11T06:05:19.726Z,31.62
2023-03-11T06:07:48.254Z,31.67
2023-03-11T06:10:16.693Z,31.72
2023-03-11T06:12:44.995Z,31.72
2023-03-11T06:15:13.309Z,31.77
2023-03-11T06:17:41.618Z,31.84
2023-03-11T06:20:10.863Z,31.91
2023-03-11T06:22:40.289Z,31.97
2023-03-11T06:25:09.204Z,32.05
2023-03-11T06:27:37.595Z,32.04
2023-03-11T06:30:06.501Z,32.04
2023-03-11T06:32:36.296Z,32.06
2023-03-11T06:35:05.774Z,32.10
2023-03-11T06:37:38.247Z,32.16
2023-03-11T06:40:09.168Z,32.21
2023-03-11T06:42:37.982Z,32.26
2023-03-11T06:45:07.092Z,32.30
2023-03-11T06:47:35.372Z,32.31
2023-03-11T06:50:07.607Z,32.31
2023-03-11T06:52:36.023Z,32.36
2023-03-11T06:55:04.988Z,32.38
2023-03-11T06:57:34.547Z,32.37
2023-03-11T07:00:02.897Z,32.36
2023-03-11T07:02:31.321Z,32.37
2023-03-11T07:04:59.715Z,32.39
2023-03-11T07:07:28.037Z,32.40
2023-03-11T07:09:58.673Z,32.41
2023-03-11T07:12:27.246Z,32.41
2023-03-11T07:14:59.908Z,32.43
2023-03-11T07:17:29.479Z,32.49
2023-03-11T07:19:57.811Z,32.56
2023-03-11T07:22:26.180Z,32.60
2023-03-11T07:24:54.583Z,32.63
2023-03-11T07:27:23.533Z,32.62
2023-03-11T07:29:51.855Z,32.62
2023-03-11T07:32:20.214Z,32.61
2023-03-11T07:34:48.488Z,32.61
2023-03-11T07:37:16.801Z,32.62
2023-03-11T07:39:45.144Z,32.62
2023-03-11T07:42:13.473Z,32.62
2023-03-11T07:44:41.818Z,32.63
2023-03-11T07:47:10.136Z,32.61
2023-03-11T07:49:38.533Z,32.56
2023-03-11T07:52:07.245Z,32.54
2023-03-11T07:54:35.592Z,32.52
2023-03-11T07:57:04.682Z,32.51
2023-03-11T07:59:32.949Z,32.51
2023-03-11T08:02:01.263Z,32.52
2023-03-11T08:04:29.688Z,32.52
2023-03-11T08:06:57.959Z,32.50
2023-03-11T08:09:26.268Z,32.50
2023-03-11T08:11:54.572Z,32.49
2023-03-11T08:14:22.876Z,32.51
2023-03-11T08:16:51.195Z,32.51
2023-03-11T08:19:19.587Z,32.50
2023-03-11T08:21:47.930Z,32.48
2023-03-11T08:24:16.593Z,32.45
2023-03-11T08:26:45.015Z,32.43
2023-03-11T08:29:13.391Z,32.43
2023-03-11T08:31:41.735Z,32.41
2023-03-11T08:34:11.812Z,32.38
2023-03-11T08:36:40.596Z,32.36
2023-03-11T08:39:09.184Z,32.34
2023-03-11T08:41:37.506Z,32.33
2023-03-11T08:44:06.217Z,32.30
2023-03-11T08:46:37.584Z,32.25
2023-03-11T08:49:07.377Z,32.20
2023-03-11T08:51:36.564Z,32.19
2023-03-11T08:54:05.516Z,32.15
2023-03-11T08:56:33.829Z,32.14
2023-03-11T08:59:02.283Z,32.13
2023-03-11T09:01:31.131Z,32.12
2023-03-11T09:03:59.555Z,32.13
2023-03-11T09:06:27.947Z,32.10
2023-03-11T09:08:56.311Z,32.11
2023-03-11T09:11:25.362Z,32.08
2023-03-11T09:13:53.869Z,32.06
2023-03-11T09:16:24.057Z,32.04
2023-03-11T09:18:52.554Z,32.01
2023-03-11T09:21:21.396Z,31.97
2023-03-11T09:23:50.114Z,31.93
2023-03-11T09:26:18.426Z,31.90
2023-03-11T09:28:49.862Z,31.83
2023-03-11T09:31:19.236Z,31.76
2023-03-11T09:33:48.131Z,31.70
2023-03-11T09:36:19.069Z,31.66
2023-03-11T09:38:47.982Z,31.62
2023-03-11T09:41:18.968Z,31.58
2023-03-11T09:44:33.826Z,31.54
2023-03-11T09:47:43.363Z,31.50
2023-03-11T09:50:22.002Z,31.47
2023-03-11T09:53:12.698Z,31.42
2023-03-11T09:55:57.545Z,31.38
2023-03-11T09:58:43.982Z,31.32
2023-03-11T10:01:36.587Z,31.25
2023-03-11T10:04:23.305Z,31.18
2023-03-11T10:06:52.641Z,31.13
2023-03-11T10:09:54.931Z,31.07
2023-03-11T10:12:50.854Z,31.03
2023-03-11T10:15:31.002Z,30.99
2023-03-11T10:18:19.732Z,30.96
2023-03-11T10:21:07.565Z,30.93
2023-03-11T10:24:15.345Z,30.89
2023-03-11T10:26:51.205Z,30.84
2023-03-11T10:29:28.205Z,30.77
2023-03-11T10:32:26.602Z,30.70
2023-03-11T10:35:12.646Z,30.62
2023-03-11T10:37:49.819Z,30.54
2023-03-11T10:40:38.065Z,30.46
2023-03-11T10:43:29.998Z,30.36
2023-03-11T10:45:59.712Z,30.28
2023-03-11T10:48:28.292Z,30.20
2023-03-11T10:51:04.325Z,30.12
2023-03-11T10:53:33.057Z,30.04
2023-03-11T10:56:01.752Z,29.97
2023-03-11T10:58:32.235Z,29.89
2023-03-11T11:01:18.753Z,29.79
2023-03-11T11:03:51.021Z,29.72
2023-03-11T11:06:45.697Z,29.62
2023-03-11T11:09:21.997Z,29.52
2023-03-11T11:12:04.300Z,29.40
2023-03-11T11:14:53.654Z,29.29
2023-03-11T11:17:25.768Z,29.20
2023-03-11T11:19:55.990Z,29.13
2023-03-11T11:22:25.681Z,29.06
2023-03-11T11:24:57.712Z,29.03
2023-03-11T11:27:28.846Z,28.97
2023-03-11T11:30:13.274Z,28.90
2023-03-11T11:32:41.752Z,28.84
2023-03-11T11:35:16.007Z,28.78
2023-03-11T11:37:50.827Z,28.72
2023-03-11T11:40:33.652Z,28.65
2023-03-11T11:43:19.300Z,28.58
2023-03-11T11:45:51.210Z,28.51
2023-03-11T11:48:26.571Z,28.46
2023-03-11T11:51:01.994Z,28.43
2023-03-11T11:53:45.642Z,28.35
2023-03-11T11:56:14.544Z,28.28
2023-03-11T11:58:42.938Z,28.20
2023-03-11T12:01:36.586Z,28.17
2023-03-11T12:04:25.808Z,28.12
2023-03-11T12:07:15.594Z,28.06
2023-03-11T12:10:22.266Z,28.01
2023-03-11T12:13:23.511Z,27.94
2023-03-11T12:15:58.383Z,27.88
2023-03-11T12:18:43.473Z,27.82
2023-03-11T12:21:42.407Z,27.78
2023-03-11T12:24:42.839Z,27.71
2023-03-11T12:27:35.589Z,27.65
2023-03-11T12:30:13.907Z,27.59
2023-03-11T12:32:49.450Z,27.53
2023-03-11T12:35:20.609Z,27.48
2023-03-11T12:38:16.830Z,27.42
2023-03-11T12:41:00.384Z,27.38
2023-03-11T12:43:31.453Z,27.36
2023-03-11T12:46:00.734Z,27.32
2023-03-11T12:48:28.980Z,27.30
2023-03-11T12:51:01.126Z,27.27
2023-03-11T12:53:48.885Z,27.23
2023-03-11T12:56:19.956Z,27.19
2023-03-11T12:59:14.394Z,27.15
2023-03-11T13:01:51.238Z,27.10
2023-03-11T13:04:48.612Z,27.06
2023-03-11T13:07:28.340Z,27.04
2023-03-11T13:10:08.852Z,27.01
2023-03-11T13:12:49.079Z,26.97
2023-03-11T13:15:23.110Z,26.94
2023-03-11T13:18:19.196Z,26.90
2023-03-11T13:20:57.072Z,26.87
2023-03-11T13:23:41.342Z,26.83
2023-03-11T13:26:12.336Z,26.79
2023-03-11T13:29:06.696Z,26.76
2023-03-11T13:32:02.536Z,26.73
2023-03-11T13:34:52.101Z,26.69
2023-03-11T13:37:32.730Z,26.65
2023-03-11T13:40:25.704Z,26.63
2023-03-11T13:43:03.916Z,26.60
2023-03-11T13:45:36.765Z,26.56
2023-03-11T13:48:31.493Z,26.51
2023-03-11T13:51:14.375Z,26.48
2023-03-11T13:53:51.361Z,26.45
2023-03-11T13:56:32.789Z,26.41
2023-03-11T13:59:29.489Z,26.38
2023-03-11T14:02:01.206Z,26.35
2023-03-11T14:04:32.982Z,26.34
2023-03-11T14:07:01.802Z,26.34
2023-03-11T14:09:30.524Z,26.30
2023-03-11T14:12:08.658Z,26.26
2023-03-11T14:14:59.762Z,26.23
2023-03-11T14:17:28.252Z,26.19
2023-03-11T14:20:13.256Z,26.17
2023-03-11T14:22:45.048Z,26.16
2023-03-11T14:25:20.472Z,26.13
2023-03-11T14:28:02.168Z,26.10
2023-03-11T14:30:33.354Z,26.08
2023-03-11T14:33:21.803Z,26.05
2023-03-11T14:36:04.620Z,26.03
2023-03-11T14:38:34.670Z,25.99
2023-03-11T14:41:07.606Z,25.95
2023-03-11T14:43:41.877Z,25.94
2023-03-11T14:46:13.454Z,25.91
2023-03-11T14:48:45.036Z,25.88
2023-03-11T14:51:20.608Z,25.87
2023-03-11T14:54:12.913Z,25.84
2023-03-11T14:56:45.395Z,25.83
2023-03-11T14:59:33.150Z,25.82
2023-03-11T15:02:27.844Z,25.79
2023-03-11T15:04:59.500Z,25.75
2023-03-11T15:07:29.200Z,25.71
2023-03-11T15:09:57.942Z,25.68
2023-03-11T15:12:41.008Z,25.64
2023-03-11T15:15:28.797Z,25.61
2023-03-11T15:17:59.384Z,25.56
2023-03-11T15:20:34.385Z,25.54
2023-03-11T15:23:08.607Z,25.53
2023-03-11T15:25:39.929Z,25.51
2023-03-11T15:28:27.702Z,25.50
2023-03-11T15:31:23.467Z,25.50
2023-03-11T15:33:57.639Z,25.49
2023-03-11T15:36:32.932Z,25.46
2023-03-11T15:39:22.206Z,25.44
2023-03-11T15:42:00.157Z,25.43
2023-03-11T15:44:33.541Z,25.42
2023-03-11T15:47:01.921Z,25.39
2023-03-11T15:49:31.149Z,25.37
2023-03-11T15:52:00.798Z,25.35
2023-03-11T15:54:29.525Z,25.32
2023-03-11T15:57:02.102Z,25.30
2023-03-11T15:59:31.485Z,25.27
2023-03-11T16:02:00.470Z,25.26
2023-03-11T16:04:28.889Z,25.26
2023-03-11T16:07:07.531Z,25.24
2023-03-11T16:09:36.900Z,25.25
2023-03-11T16:12:17.404Z,25.24
2023-03-11T16:14:46.974Z,25.24
2023-03-11T16:17:16.716Z,25.22
2023-03-11T16:19:46.534Z,25.22
2023-03-11T16:22:21.830Z,25.20
2023-03-11T16:24:53.761Z,25.19
2023-03-11T16:27:22.063Z,25.18
2023-03-11T16:29:50.339Z,25.16
2023-03-11T16:32:18.735Z,25.14
2023-03-11T16:34:47.148Z,25.14
2023-03-11T16:37:22.298Z,25.12
2023-03-11T16:39:50.569Z,25.10
2023-03-11T16:42:26.670Z,25.09
2023-03-11T16:44:54.935Z,25.08
2023-03-11T16:47:23.219Z,25.06
2023-03-11T16:49:54.379Z,25.04
2023-03-11T16:52:24.344Z,25.03
2023-03-11T16:54:52.728Z,25.02
2023-03-11T16:57:21.069Z,25.01
2023-03-11T16:59:50.305Z,25.02
2023-03-11T17:02:18.613Z,25.01
2023-03-11T17:04:46.933Z,25.01
2023-03-11T17:07:15.282Z,25.00
2023-03-11T17:09:43.706Z,25.00
2023-03-11T17:12:14.362Z,24.96
2023-03-11T17:14:43.233Z,24.95
2023-03-11T17:17:11.707Z,24.94
2023-03-11T17:19:40.177Z,24.93
2023-03-11T17:22:08.494Z,24.92
2023-03-11T17:24:37.963Z,24.91
2023-03-11T17:27:07.105Z,24.91
2023-03-11T17:29:35.479Z,24.90
2023-03-11T17:32:07.013Z,24.92
2023-03-11T17:34:35.336Z,24.92
2023-03-11T17:37:03.661Z,24.91
2023-03-11T17:39:31.976Z,24.91
2023-03-11T17:42:00.279Z,24.90
2023-03-11T17:44:33.229Z,24.88
2023-03-11T17:47:06.564Z,24.89
2023-03-11T17:49:34.892Z,24.88
2023-03-11T17:52:03.212Z,24.88
2023-03-11T17:54:31.536Z,24.88
2023-03-11T17:56:59.860Z,24.87
2023-03-11T17:59:28.209Z,24.85
2023-03-11T18:01:56.623Z,24.83
2023-03-11T18:04:25.043Z,24.82
2023-03-11T18:06:56.116Z,24.79
2023-03-11T18:09:24.390Z,24.77
2023-03-11T18:11:52.713Z,24.76
2023-03-11T18:14:21.001Z,24.75
2023-03-11T18:16:49.416Z,24.72
2023-03-11T18:19:17.771Z,24.70
2023-03-11T18:21:46.371Z,24.69
2023-03-11T18:24:14.672Z,24.67
2023-03-11T18:26:43.021Z,24.64
2023-03-11T18:29:11.435Z,24.63
2023-03-11T18:31:40.751Z,24.59
2023-03-11T18:34:14.320Z,24.57
2023-03-11T18:36:43.478Z,24.55
2023-03-11T18:39:14.571Z,24.52
2023-03-11T18:41:43.716Z,24.50
2023-03-11T18:44:12.319Z,24.47
2023-03-11T18:46:43.096Z,24.43
2023-03-11T18:49:14.527Z,24.41
2023-03-11T18:51:43.027Z,24.37
2023-03-11T18:54:11.968Z,24.34
2023-03-11T18:56:40.285Z,24.32
2023-03-11T19:01:37.890Z,24.25
2023-03-11T19:04:06.312Z,24.22
2023-03-11T19:06:34.756Z,24.19
2023-03-11T19:09:03.214Z,24.16
2023-03-11T19:11:31.524Z,24.13
2023-03-11T19:14:00.887Z,24.10
2023-03-11T19:16:29.270Z,24.07
2023-03-11T19:18:57.678Z,24.03
2023-03-11T19:21:26.860Z,23.99
2023-03-11T19:23:56.158Z,23.97
2023-03-11T19:26:43.092Z,23.97
2023-03-11T19:29:12.794Z,23.92
2023-03-11T19:31:41.265Z,23.89
2023-03-11T19:34:09.605Z,23.87
2023-03-11T19:36:38.028Z,23.85
2023-03-11T19:39:06.364Z,23.84
2023-03-11T19:41:34.712Z,23.80
2023-03-11T19:44:05.006Z,23.77
2023-03-11T19:46:35.432Z,23.73
2023-03-11T19:49:04.427Z,23.71
2023-03-11T19:51:48.466Z,23.68
2023-03-11T19:54:17.999Z,23.66
2023-03-11T19:56:47.283Z,23.62
2023-03-11T19:59:16.267Z,23.61
2023-03-11T20:01:44.736Z,23.59
2023-03-11T20:04:13.504Z,23.58
2023-03-11T20:06:41.894Z,23.56
2023-03-11T20:09:10.267Z,23.54
2023-03-11T20:11:41.234Z,23.52
2023-03-11T20:14:11.889Z,23.49
2023-03-11T20:16:40.789Z,23.48
2023-03-11T20:19:09.484Z,23.46
2023-03-11T20:21:41.779Z,23.44
2023-03-11T20:24:12.046Z,23.43
2023-03-11T20:26:40.503Z,23.42
2023-03-11T20:29:08.951Z,23.42
2023-03-11T20:31:37.493Z,23.42
2023-03-11T20:34:05.939Z,23.42
2023-03-11T20:36:35.001Z,23.42
2023-03-11T20:39:04.437Z,23.40
2023-03-11T20:41:38.337Z,23.39
2023-03-11T20:44:08.792Z,23.38
2023-03-11T20:46:37.374Z,23.36
2023-03-11T20:49:05.935Z,23.36
2023-03-11T20:51:34.279Z,23.34
2023-03-11T20:54:02.621Z,23.33
2023-03-11T20:56:31.032Z,23.30
2023-03-11T20:58:59.997Z,23.28
2023-03-11T21:01:30.752Z,23.26
2023-03-11T21:04:01.707Z,23.24
2023-03-11T21:06:39.092Z,23.24
2023-03-11T21:09:11.871Z,23.21
2023-03-11T21:11:40.419Z,23.20
2023-03-11T21:14:09.479Z,23.17
2023-03-11T21:16:40.870Z,23.16
2023-03-11T21:19:11.091Z,23.15
2023-03-11T21:21:39.465Z,23.15
2023-03-11T21:24:08.250Z,23.15
2023-03-11T21:26:36.675Z,23.15
2023-03-11T21:29:05.319Z,23.16
2023-03-11T21:31:34.041Z,23.17
2023-03-11T21:34:02.753Z,23.17
2023-03-11T21:36:31.287Z,23.19
2023-03-11T21:39:01.506Z,23.20
2023-03-11T21:41:31.220Z,23.20
2023-03-11T21:43:59.632Z,23.21
2023-03-11T21:46:32.009Z,23.21
2023-03-11T21:49:01.422Z,23.20
2023-03-11T21:51:30.424Z,23.20
2023-03-11T21:54:00.034Z,23.20
2023-03-11T21:56:29.425Z,23.19
2023-03-11T21:58:57.904Z,23.18
2023-03-11T22:01:26.403Z,23.19
2023-03-11T22:03:54.879Z,23.20
2023-03-11T22:06:23.939Z,23.18
2023-03-11T22:08:52.447Z,23.18
2023-03-11T22:11:21.351Z,23.17
2023-03-11T22:13:52.813Z,23.16
2023-03-11T22:16:23.079Z,23.15
2023-03-11T22:18:52.558Z,23.13
2023-03-11T22:21:21.897Z,23.11
2023-03-11T22:23:50.548Z,23.09
2023-03-11T22:26:19.014Z,23.07
2023-03-11T22:28:47.450Z,23.05
2023-03-11T22:31:16.681Z,23.02
2023-03-11T22:33:45.387Z,23.00
2023-03-11T22:36:13.849Z,22.97
2023-03-11T22:38:45.120Z,22.95
2023-03-11T22:41:14.965Z,22.92
2023-03-11T22:43:43.288Z,22.88
2023-03-11T22:46:11.797Z,22.86
2023-03-11T22:48:40.210Z,22.83
2023-03-11T22:51:08.529Z,22.79
2023-03-11T22:53:37.242Z,22.76
2023-03-11T22:56:10.253Z,22.73
2023-03-11T22:58:38.785Z,22.72
2023-03-11T23:01:07.810Z,22.71
2023-03-11T23:03:36.652Z,22.68
2023-03-11T23:06:09.574Z,22.66
2023-03-11T23:08:38.255Z,22.63
2023-03-11T23:11:09.241Z,22.60
2023-03-11T23:13:38.345Z,22.58
2023-03-11T23:16:19.467Z,22.56
2023-03-11T23:18:49.341Z,22.55
2023-03-11T23:21:23.385Z,22.53
2023-03-11T23:23:53.763Z,22.54
2023-03-11T23:26:23.279Z,22.52
2023-03-11T23:28:54.714Z,22.51
2023-03-11T23:31:25.894Z,22.50
2023-03-11T23:33:54.246Z,22.51
2023-03-11T23:36:24.624Z,22.52
2023-03-11T23:38:52.966Z,22.52
2023-03-11T23:41:24.584Z,22.52
2023-03-11T23:43:53.033Z,22.52
2023-03-11T23:46:21.411Z,22.52
2023-03-11T23:48:49.939Z,22.51
2023-03-11T23:51:18.301Z,22.51
2023-03-11T23:53:46.724Z,22.50
2023-03-11T23:56:18.278Z,22.51
2023-03-11T23:58:47.603Z,22.51
